This is the latest recevied weather packets stored in our database for station/object W0RMT-13. If no packets are shown the sender has not sent any weather packets the latest 10 day(s).
| Time | Temp. | Humidity | Pressure | Rain* | Wind** | Luminosity | Snow |
|---|---|---|---|---|---|---|---|
| 1777995550 | 1.67° C | 99% | 1014.7 hPa | 1.27 mm | - | 81 W/m² | - |
| 1777994870 | 1.67° C | 99% | 1014.7 hPa | 1.02 mm | - | 78 W/m² | - |
| 1777994265 | 1.67° C | 99% | 1014.7 hPa | 0.76 mm | - | 63 W/m² | - |
| 1777993573 | 1.11° C | 99% | 1014.7 hPa | 0.51 mm | - | 50 W/m² | - |
| 1777992902 | 1.11° C | 99% | 1014.7 hPa | 0.51 mm | - | 46 W/m² | - |
| 1777992314 | 1.11° C | 99% | 1014.2 hPa | 0.25 mm | - | 39 W/m² | - |
| 1777991633 | 1.11° C | 99% | 1014.2 hPa | 0.25 mm | - | 40 W/m² | - |
| 1777990985 | 1.11° C | 99% | 1014.7 hPa | 0 mm | - | 38 W/m² | - |
| 1777989647 | 0.56° C | 99% | 1014.2 hPa | 0 mm | - | 23 W/m² | - |
| 1777988971 | 0.56° C | 99% | 1014.2 hPa | 0 mm | - | 20 W/m² | - |
| 1777988373 | 0.56° C | 99% | 1014.2 hPa | 0 mm | - | 21 W/m² | - |
| 1777987716 | 0.56° C | 99% | 1014.7 hPa | 0 mm | - | 19 W/m² | - |
| 1777987094 | 0.56° C | 99% | 1014.2 hPa | 0 mm | - | 7 W/m² | - |
| 1777986364 | 0.56° C | 99% | 1014.2 hPa | 0 mm | - | 5 W/m² | - |
| 1777985767 | 0.56° C | 99% | 1013.8 hPa | 0 mm | - | 3 W/m² | - |
| 1777985046 | 0.56° C | 99% | 1013.8 hPa | 0 mm | - | 2 W/m² | - |
| 1777984352 | 0.56° C | 99% | 1013.8 hPa | 0.25 mm | - | 0 W/m² | - |
| 1777983665 | 0.56° C | 99% | 1013.4 hPa | 0.25 mm | - | 0 W/m² | - |
| 1777982972 | 1.11° C | 99% | 1013.4 hPa | 0.25 mm | - | 0 W/m² | - |
| 1777982341 | 1.11° C | 99% | 1013.4 hPa | 0.25 mm | - | 0 W/m² | - |
| 1777981636 | 1.67° C | 99% | 1013 hPa | 0.76 mm | - | 0 W/m² | - |
| 1777981012 | 1.67° C | 99% | 1013.4 hPa | 0.76 mm | - | 0 W/m² | - |
| 1777980450 | 1.67° C | 99% | 1013.4 hPa | 0.51 mm | - | 0 W/m² | - |
| 1777979713 | 2.22° C | 99% | 1013 hPa | 0.51 mm | - | 0 W/m² | - |
| 1777979048 | 2.78° C | 99% | 1013.4 hPa | 0.76 mm | - | 0 W/m² | - |
* Rain latest hour (hover to see other rain measurements)
** Current wind speed in m/s (hover to see current wind gust speed)